< < Back
Terminal Aerodrome Forecast


Current Version              Previous Versions:   1  2  3  4  5  6  7  8  9  

Terminal Aerodrome Forecast

911
FTUS42 KTAE 220500
TAFVLD
TAF
KVLD 220539Z 2206/2306 00000KT P6SM SKC
     FM221500 02006KT P6SM SKC=

Latest METAR

710
SAUS70 KWBC 230100 RRF
MTRVLD
METAR KVLD 230053Z 00000KT 10SM CLR 13/07 A3004 RMK AO2 SLP181
T01280072


USA.gov is the U.S. government's official web portal to all federal, state and local government web resources and services.